sensor_id;sensor_type;location;lat;lon;timestamp;P1;durP1;ratioP1;P2;durP2;ratioP2
57593;SDS011;43423;46.510;6.686;2023-02-11T00:01:37;51.22;;;18.52;;
57593;SDS011;43423;46.510;6.686;2023-02-11T00:04:03;42.38;;;17.88;;
57593;SDS011;43423;46.510;6.686;2023-02-11T00:06:31;45.80;;;19.02;;
57593;SDS011;43423;46.510;6.686;2023-02-11T00:08:57;44.10;;;18.48;;
57593;SDS011;43423;46.510;6.686;2023-02-11T00:11:23;42.97;;;18.75;;
57593;SDS011;43423;46.510;6.686;2023-02-11T00:13:50;44.60;;;19.75;;
57593;SDS011;43423;46.510;6.686;2023-02-11T00:16:18;52.58;;;17.88;;
57593;SDS011;43423;46.510;6.686;2023-02-11T00:18:44;42.92;;;18.20;;
57593;SDS011;43423;46.510;6.686;2023-02-11T00:21:12;44.50;;;18.77;;
57593;SDS011;43423;46.510;6.686;2023-02-11T00:23:39;48.33;;;19.75;;
57593;SDS011;43423;46.510;6.686;2023-02-11T00:26:22;49.58;;;19.85;;
57593;SDS011;43423;46.510;6.686;2023-02-11T00:28:50;45.42;;;17.95;;
57593;SDS011;43423;46.510;6.686;2023-02-11T00:31:16;48.97;;;19.20;;
57593;SDS011;43423;46.510;6.686;2023-02-11T00:33:44;45.30;;;19.90;;
57593;SDS011;43423;46.510;6.686;2023-02-11T00:36:12;42.25;;;18.45;;
57593;SDS011;43423;46.510;6.686;2023-02-11T00:38:41;49.72;;;19.50;;
57593;SDS011;43423;46.510;6.686;2023-02-11T00:41:08;47.72;;;18.80;;
57593;SDS011;43423;46.510;6.686;2023-02-11T00:43:34;45.17;;;18.42;;
57593;SDS011;43423;46.510;6.686;2023-02-11T00:46:00;48.97;;;19.63;;
57593;SDS011;43423;46.510;6.686;2023-02-11T00:48:26;46.05;;;17.73;;
57593;SDS011;43423;46.510;6.686;2023-02-11T00:50:51;43.22;;;17.98;;
57593;SDS011;43423;46.510;6.686;2023-02-11T00:53:17;47.83;;;18.23;;
57593;SDS011;43423;46.510;6.686;2023-02-11T00:55:42;49.53;;;19.25;;
57593;SDS011;43423;46.510;6.686;2023-02-11T00:58:08;46.63;;;18.42;;
57593;SDS011;43423;46.510;6.686;2023-02-11T01:00:34;45.17;;;18.13;;
57593;SDS011;43423;46.510;6.686;2023-02-11T01:02:59;53.40;;;19.20;;
57593;SDS011;43423;46.510;6.686;2023-02-11T01:05:25;47.35;;;18.65;;
57593;SDS011;43423;46.510;6.686;2023-02-11T01:07:50;42.33;;;18.08;;
57593;SDS011;43423;46.510;6.686;2023-02-11T01:10:16;42.65;;;17.83;;
57593;SDS011;43423;46.510;6.686;2023-02-11T01:12:41;43.67;;;17.77;;
57593;SDS011;43423;46.510;6.686;2023-02-11T01:15:07;49.05;;;18.08;;
57593;SDS011;43423;46.510;6.686;2023-02-11T01:17:37;41.57;;;17.97;;
57593;SDS011;43423;46.510;6.686;2023-02-11T01:20:07;47.00;;;17.90;;
57593;SDS011;43423;46.510;6.686;2023-02-11T01:22:37;48.38;;;18.58;;
57593;SDS011;43423;46.510;6.686;2023-02-11T01:25:04;44.60;;;19.10;;
57593;SDS011;43423;46.510;6.686;2023-02-11T01:27:31;43.00;;;16.83;;
57593;SDS011;43423;46.510;6.686;2023-02-11T01:29:56;47.90;;;17.95;;
57593;SDS011;43423;46.510;6.686;2023-02-11T01:32:22;47.50;;;19.15;;
57593;SDS011;43423;46.510;6.686;2023-02-11T01:34:48;41.83;;;17.55;;
57593;SDS011;43423;46.510;6.686;2023-02-11T01:37:13;46.95;;;18.20;;
57593;SDS011;43423;46.510;6.686;2023-02-11T01:39:39;49.25;;;17.90;;
57593;SDS011;43423;46.510;6.686;2023-02-11T01:42:04;44.70;;;17.80;;
57593;SDS011;43423;46.510;6.686;2023-02-11T01:44:32;48.00;;;19.73;;
57593;SDS011;43423;46.510;6.686;2023-02-11T01:47:01;44.20;;;17.40;;
57593;SDS011;43423;46.510;6.686;2023-02-11T01:49:30;48.13;;;19.15;;
57593;SDS011;43423;46.510;6.686;2023-02-11T01:52:00;50.88;;;18.77;;
57593;SDS011;43423;46.510;6.686;2023-02-11T01:54:34;45.15;;;17.42;;
57593;SDS011;43423;46.510;6.686;2023-02-11T01:57:21;46.42;;;18.60;;
57593;SDS011;43423;46.510;6.686;2023-02-11T02:00:10;46.60;;;18.85;;
57593;SDS011;43423;46.510;6.686;2023-02-11T02:06:02;48.90;;;18.98;;
57593;SDS011;43423;46.510;6.686;2023-02-11T02:08:15;48.00;;;18.77;;
57593;SDS011;43423;46.510;6.686;2023-02-11T02:10:47;43.60;;;18.80;;
57593;SDS011;43423;46.510;6.686;2023-02-11T02:13:18;47.80;;;19.33;;
57593;SDS011;43423;46.510;6.686;2023-02-11T02:15:48;49.70;;;18.77;;
57593;SDS011;43423;46.510;6.686;2023-02-11T02:21:09;46.05;;;19.63;;
57593;SDS011;43423;46.510;6.686;2023-02-11T02:29:36;44.20;;;18.55;;
57593;SDS011;43423;46.510;6.686;2023-02-11T02:32:28;55.83;;;21.02;;
57593;SDS011;43423;46.510;6.686;2023-02-11T02:35:08;56.50;;;22.00;;
57593;SDS011;43423;46.510;6.686;2023-02-11T02:37:40;51.40;;;20.50;;
57593;SDS011;43423;46.510;6.686;2023-02-11T02:40:16;53.97;;;19.70;;
57593;SDS011;43423;46.510;6.686;2023-02-11T02:42:45;50.83;;;21.77;;
57593;SDS011;43423;46.510;6.686;2023-02-11T02:45:12;53.53;;;21.45;;
57593;SDS011;43423;46.510;6.686;2023-02-11T02:47:38;45.90;;;19.67;;
57593;SDS011;43423;46.510;6.686;2023-02-11T02:50:04;57.60;;;20.85;;
57593;SDS011;43423;46.510;6.686;2023-02-11T02:52:40;52.05;;;21.05;;
57593;SDS011;43423;46.510;6.686;2023-02-11T02:57:59;57.28;;;19.38;;
57593;SDS011;43423;46.510;6.686;2023-02-11T03:06:27;50.20;;;19.52;;
57593;SDS011;43423;46.510;6.686;2023-02-11T03:08:59;49.97;;;21.95;;
57593;SDS011;43423;46.510;6.686;2023-02-11T03:11:30;52.75;;;21.60;;
57593;SDS011;43423;46.510;6.686;2023-02-11T03:13:56;54.38;;;21.13;;
57593;SDS011;43423;46.510;6.686;2023-02-11T03:16:25;51.10;;;19.15;;
57593;SDS011;43423;46.510;6.686;2023-02-11T03:18:55;53.28;;;21.42;;
57593;SDS011;43423;46.510;6.686;2023-02-11T03:21:27;49.70;;;20.00;;
57593;SDS011;43423;46.510;6.686;2023-02-11T03:23:56;46.92;;;19.30;;
57593;SDS011;43423;46.510;6.686;2023-02-11T03:26:27;47.90;;;20.85;;
57593;SDS011;43423;46.510;6.686;2023-02-11T03:31:39;48.80;;;19.10;;
57593;SDS011;43423;46.510;6.686;2023-02-11T03:34:13;46.67;;;17.90;;
57593;SDS011;43423;46.510;6.686;2023-02-11T03:36:46;43.25;;;17.40;;
57593;SDS011;43423;46.510;6.686;2023-02-11T03:39:18;53.42;;;19.80;;
57593;SDS011;43423;46.510;6.686;2023-02-11T03:41:51;50.63;;;18.58;;
57593;SDS011;43423;46.510;6.686;2023-02-11T03:44:20;46.60;;;20.17;;
57593;SDS011;43423;46.510;6.686;2023-02-11T03:46:49;42.75;;;17.90;;
57593;SDS011;43423;46.510;6.686;2023-02-11T03:49:17;45.63;;;20.23;;
57593;SDS011;43423;46.510;6.686;2023-02-11T03:51:45;50.83;;;19.27;;
57593;SDS011;43423;46.510;6.686;2023-02-11T03:54:14;44.55;;;18.55;;
57593;SDS011;43423;46.510;6.686;2023-02-11T03:56:51;53.15;;;18.92;;
57593;SDS011;43423;46.510;6.686;2023-02-11T03:59:19;44.58;;;19.35;;
57593;SDS011;43423;46.510;6.686;2023-02-11T04:01:45;44.67;;;18.38;;
57593;SDS011;43423;46.510;6.686;2023-02-11T04:04:10;37.05;;;16.38;;
57593;SDS011;43423;46.510;6.686;2023-02-11T04:06:36;51.92;;;18.42;;
57593;SDS011;43423;46.510;6.686;2023-02-11T04:09:02;47.20;;;18.80;;
57593;SDS011;43423;46.510;6.686;2023-02-11T04:11:28;43.42;;;19.90;;
57593;SDS011;43423;46.510;6.686;2023-02-11T04:13:53;47.90;;;18.10;;
57593;SDS011;43423;46.510;6.686;2023-02-11T04:16:19;39.50;;;17.40;;
57593;SDS011;43423;46.510;6.686;2023-02-11T04:18:44;47.20;;;17.67;;
57593;SDS011;43423;46.510;6.686;2023-02-11T04:21:10;44.08;;;19.60;;
57593;SDS011;43423;46.510;6.686;2023-02-11T04:23:35;47.85;;;17.63;;
57593;SDS011;43423;46.510;6.686;2023-02-11T04:26:01;45.85;;;18.92;;
57593;SDS011;43423;46.510;6.686;2023-02-11T04:28:27;46.47;;;17.20;;
57593;SDS011;43423;46.510;6.686;2023-02-11T04:30:54;46.65;;;18.10;;
57593;SDS011;43423;46.510;6.686;2023-02-11T04:33:21;46.97;;;18.85;;
57593;SDS011;43423;46.510;6.686;2023-02-11T04:35:46;44.42;;;17.80;;
57593;SDS011;43423;46.510;6.686;2023-02-11T04:38:12;48.20;;;18.77;;
57593;SDS011;43423;46.510;6.686;2023-02-11T04:40:38;54.30;;;19.50;;
57593;SDS011;43423;46.510;6.686;2023-02-11T04:43:04;47.60;;;19.80;;
57593;SDS011;43423;46.510;6.686;2023-02-11T04:45:30;50.85;;;19.60;;
57593;SDS011;43423;46.510;6.686;2023-02-11T04:47:56;46.65;;;18.67;;
57593;SDS011;43423;46.510;6.686;2023-02-11T04:50:21;41.50;;;18.48;;
57593;SDS011;43423;46.510;6.686;2023-02-11T04:52:47;48.10;;;18.65;;
57593;SDS011;43423;46.510;6.686;2023-02-11T04:55:12;42.75;;;17.38;;
57593;SDS011;43423;46.510;6.686;2023-02-11T04:57:38;45.50;;;19.13;;
57593;SDS011;43423;46.510;6.686;2023-02-11T05:00:04;42.00;;;18.02;;
57593;SDS011;43423;46.510;6.686;2023-02-11T05:02:30;45.30;;;18.58;;
57593;SDS011;43423;46.510;6.686;2023-02-11T05:04:56;42.83;;;17.90;;
57593;SDS011;43423;46.510;6.686;2023-02-11T05:07:22;36.65;;;16.58;;
57593;SDS011;43423;46.510;6.686;2023-02-11T05:09:47;46.10;;;18.48;;
57593;SDS011;43423;46.510;6.686;2023-02-11T05:12:13;43.40;;;18.27;;
57593;SDS011;43423;46.510;6.686;2023-02-11T05:14:39;44.38;;;17.90;;
57593;SDS011;43423;46.510;6.686;2023-02-11T05:17:05;45.35;;;18.48;;
57593;SDS011;43423;46.510;6.686;2023-02-11T05:19:31;47.10;;;17.83;;
57593;SDS011;43423;46.510;6.686;2023-02-11T05:21:56;51.17;;;18.88;;
57593;SDS011;43423;46.510;6.686;2023-02-11T05:24:22;43.85;;;16.67;;
57593;SDS011;43423;46.510;6.686;2023-02-11T05:26:47;38.67;;;16.48;;
57593;SDS011;43423;46.510;6.686;2023-02-11T05:29:13;42.58;;;16.65;;
57593;SDS011;43423;46.510;6.686;2023-02-11T05:31:38;42.85;;;17.33;;
57593;SDS011;43423;46.510;6.686;2023-02-11T05:34:04;43.47;;;17.05;;
57593;SDS011;43423;46.510;6.686;2023-02-11T05:36:29;39.67;;;16.38;;
57593;SDS011;43423;46.510;6.686;2023-02-11T05:38:55;43.60;;;16.88;;
57593;SDS011;43423;46.510;6.686;2023-02-11T05:41:21;38.08;;;16.25;;
57593;SDS011;43423;46.510;6.686;2023-02-11T05:43:47;43.83;;;17.73;;
57593;SDS011;43423;46.510;6.686;2023-02-11T05:46:15;49.45;;;17.48;;
57593;SDS011;43423;46.510;6.686;2023-02-11T05:48:42;36.45;;;15.30;;
57593;SDS011;43423;46.510;6.686;2023-02-11T05:51:07;35.30;;;14.90;;
57593;SDS011;43423;46.510;6.686;2023-02-11T05:53:33;40.97;;;16.42;;
57593;SDS011;43423;46.510;6.686;2023-02-11T05:55:59;46.60;;;16.50;;
57593;SDS011;43423;46.510;6.686;2023-02-11T05:58:25;47.15;;;16.88;;
57593;SDS011;43423;46.510;6.686;2023-02-11T06:00:50;40.20;;;17.08;;
57593;SDS011;43423;46.510;6.686;2023-02-11T06:03:16;39.60;;;15.35;;
57593;SDS011;43423;46.510;6.686;2023-02-11T06:05:42;38.63;;;16.15;;
57593;SDS011;43423;46.510;6.686;2023-02-11T06:08:08;36.78;;;16.77;;
57593;SDS011;43423;46.510;6.686;2023-02-11T06:10:34;36.10;;;14.77;;
57593;SDS011;43423;46.510;6.686;2023-02-11T06:13:00;38.65;;;16.48;;
57593;SDS011;43423;46.510;6.686;2023-02-11T06:15:25;39.10;;;15.88;;
57593;SDS011;43423;46.510;6.686;2023-02-11T06:17:51;36.05;;;15.30;;
57593;SDS011;43423;46.510;6.686;2023-02-11T06:20:17;37.55;;;16.33;;
57593;SDS011;43423;46.510;6.686;2023-02-11T06:22:42;39.78;;;15.40;;
57593;SDS011;43423;46.510;6.686;2023-02-11T06:25:08;37.78;;;17.15;;
57593;SDS011;43423;46.510;6.686;2023-02-11T06:27:35;40.08;;;15.95;;
57593;SDS011;43423;46.510;6.686;2023-02-11T06:30:01;43.65;;;16.33;;
57593;SDS011;43423;46.510;6.686;2023-02-11T06:32:28;41.17;;;16.50;;
57593;SDS011;43423;46.510;6.686;2023-02-11T06:34:54;41.92;;;16.50;;
57593;SDS011;43423;46.510;6.686;2023-02-11T06:37:19;35.58;;;15.93;;
57593;SDS011;43423;46.510;6.686;2023-02-11T06:39:45;35.92;;;16.38;;
57593;SDS011;43423;46.510;6.686;2023-02-11T06:42:10;45.40;;;17.05;;
57593;SDS011;43423;46.510;6.686;2023-02-11T06:44:36;41.83;;;17.08;;
57593;SDS011;43423;46.510;6.686;2023-02-11T06:47:02;41.85;;;17.02;;
57593;SDS011;43423;46.510;6.686;2023-02-11T06:49:27;43.17;;;16.00;;
57593;SDS011;43423;46.510;6.686;2023-02-11T06:51:53;45.28;;;17.67;;
57593;SDS011;43423;46.510;6.686;2023-02-11T06:54:18;48.30;;;17.92;;
57593;SDS011;43423;46.510;6.686;2023-02-11T06:56:44;39.35;;;16.58;;
57593;SDS011;43423;46.510;6.686;2023-02-11T06:59:13;43.45;;;17.13;;
57593;SDS011;43423;46.510;6.686;2023-02-11T07:01:40;39.90;;;16.15;;
57593;SDS011;43423;46.510;6.686;2023-02-11T07:04:06;38.85;;;15.93;;
57593;SDS011;43423;46.510;6.686;2023-02-11T07:06:32;37.72;;;15.50;;
57593;SDS011;43423;46.510;6.686;2023-02-11T07:08:58;34.65;;;14.70;;
57593;SDS011;43423;46.510;6.686;2023-02-11T07:11:25;33.53;;;13.70;;
57593;SDS011;43423;46.510;6.686;2023-02-11T07:13:54;42.20;;;16.10;;
57593;SDS011;43423;46.510;6.686;2023-02-11T07:16:24;34.55;;;14.18;;
57593;SDS011;43423;46.510;6.686;2023-02-11T07:18:49;39.28;;;15.73;;
57593;SDS011;43423;46.510;6.686;2023-02-11T07:21:17;39.95;;;15.48;;
57593;SDS011;43423;46.510;6.686;2023-02-11T07:23:45;43.03;;;16.25;;
57593;SDS011;43423;46.510;6.686;2023-02-11T07:26:11;42.22;;;16.17;;
57593;SDS011;43423;46.510;6.686;2023-02-11T07:28:39;40.95;;;17.55;;
57593;SDS011;43423;46.510;6.686;2023-02-11T07:31:08;35.30;;;15.75;;
57593;SDS011;43423;46.510;6.686;2023-02-11T07:33:35;38.85;;;15.75;;
57593;SDS011;43423;46.510;6.686;2023-02-11T07:36:02;39.05;;;14.43;;
57593;SDS011;43423;46.510;6.686;2023-02-11T07:38:31;36.85;;;13.00;;
57593;SDS011;43423;46.510;6.686;2023-02-11T07:40:58;35.67;;;13.07;;
57593;SDS011;43423;46.510;6.686;2023-02-11T07:43:25;29.38;;;11.75;;
57593;SDS011;43423;46.510;6.686;2023-02-11T07:45:51;40.17;;;14.55;;
57593;SDS011;43423;46.510;6.686;2023-02-11T07:48:17;29.98;;;11.95;;
57593;SDS011;43423;46.510;6.686;2023-02-11T07:50:42;28.45;;;10.85;;
57593;SDS011;43423;46.510;6.686;2023-02-11T07:53:08;24.75;;;11.40;;
57593;SDS011;43423;46.510;6.686;2023-02-11T07:55:33;31.25;;;11.68;;
57593;SDS011;43423;46.510;6.686;2023-02-11T07:57:59;28.88;;;11.18;;
57593;SDS011;43423;46.510;6.686;2023-02-11T08:00:24;34.03;;;12.27;;
57593;SDS011;43423;46.510;6.686;2023-02-11T08:02:50;36.83;;;14.73;;
57593;SDS011;43423;46.510;6.686;2023-02-11T08:05:15;43.50;;;14.73;;
57593;SDS011;43423;46.510;6.686;2023-02-11T08:07:41;40.75;;;15.38;;
57593;SDS011;43423;46.510;6.686;2023-02-11T08:10:06;38.80;;;16.48;;
57593;SDS011;43423;46.510;6.686;2023-02-11T08:12:32;40.58;;;16.45;;
57593;SDS011;43423;46.510;6.686;2023-02-11T08:14:58;38.30;;;16.27;;
57593;SDS011;43423;46.510;6.686;2023-02-11T08:17:23;41.80;;;15.65;;
57593;SDS011;43423;46.510;6.686;2023-02-11T08:19:49;46.45;;;17.50;;
57593;SDS011;43423;46.510;6.686;2023-02-11T08:22:14;50.65;;;18.90;;
57593;SDS011;43423;46.510;6.686;2023-02-11T08:24:40;52.55;;;19.52;;
57593;SDS011;43423;46.510;6.686;2023-02-11T08:27:06;43.65;;;18.65;;
57593;SDS011;43423;46.510;6.686;2023-02-11T08:29:31;53.47;;;20.48;;
57593;SDS011;43423;46.510;6.686;2023-02-11T08:31:57;52.47;;;21.38;;
57593;SDS011;43423;46.510;6.686;2023-02-11T08:34:22;53.10;;;22.77;;
57593;SDS011;43423;46.510;6.686;2023-02-11T08:36:48;55.33;;;22.50;;
57593;SDS011;43423;46.510;6.686;2023-02-11T08:39:15;55.85;;;21.90;;
57593;SDS011;43423;46.510;6.686;2023-02-11T08:41:43;55.58;;;24.40;;
57593;SDS011;43423;46.510;6.686;2023-02-11T08:44:09;58.05;;;23.60;;
57593;SDS011;43423;46.510;6.686;2023-02-11T08:46:35;65.68;;;26.05;;
57593;SDS011;43423;46.510;6.686;2023-02-11T08:49:00;59.22;;;23.73;;
57593;SDS011;43423;46.510;6.686;2023-02-11T08:51:26;60.58;;;24.65;;
57593;SDS011;43423;46.510;6.686;2023-02-11T08:53:54;64.43;;;24.75;;
57593;SDS011;43423;46.510;6.686;2023-02-11T08:56:20;65.38;;;25.40;;
57593;SDS011;43423;46.510;6.686;2023-02-11T08:58:50;51.28;;;23.77;;
57593;SDS011;43423;46.510;6.686;2023-02-11T09:01:26;54.95;;;22.20;;
57593;SDS011;43423;46.510;6.686;2023-02-11T09:03:53;58.05;;;23.13;;
57593;SDS011;43423;46.510;6.686;2023-02-11T09:06:20;65.07;;;26.23;;
57593;SDS011;43423;46.510;6.686;2023-02-11T09:08:47;66.85;;;29.23;;
57593;SDS011;43423;46.510;6.686;2023-02-11T09:11:15;69.78;;;28.27;;
57593;SDS011;43423;46.510;6.686;2023-02-11T09:13:42;69.53;;;27.10;;
57593;SDS011;43423;46.510;6.686;2023-02-11T09:16:14;62.25;;;26.58;;
57593;SDS011;43423;46.510;6.686;2023-02-11T09:18:42;69.85;;;26.45;;
57593;SDS011;43423;46.510;6.686;2023-02-11T09:21:10;69.45;;;27.83;;
57593;SDS011;43423;46.510;6.686;2023-02-11T09:23:36;76.65;;;30.02;;
57593;SDS011;43423;46.510;6.686;2023-02-11T09:26:09;77.28;;;29.55;;
57593;SDS011;43423;46.510;6.686;2023-02-11T09:28:36;69.32;;;28.73;;
57593;SDS011;43423;46.510;6.686;2023-02-11T09:31:09;68.32;;;28.05;;
57593;SDS011;43423;46.510;6.686;2023-02-11T09:33:36;63.35;;;26.85;;
57593;SDS011;43423;46.510;6.686;2023-02-11T09:36:04;71.97;;;29.85;;
57593;SDS011;43423;46.510;6.686;2023-02-11T09:38:30;75.05;;;30.27;;
57593;SDS011;43423;46.510;6.686;2023-02-11T09:40:56;71.20;;;28.95;;
57593;SDS011;43423;46.510;6.686;2023-02-11T09:43:23;64.05;;;27.30;;
57593;SDS011;43423;46.510;6.686;2023-02-11T09:46:11;66.13;;;27.02;;
57593;SDS011;43423;46.510;6.686;2023-02-11T09:48:40;66.38;;;29.00;;
57593;SDS011;43423;46.510;6.686;2023-02-11T09:51:50;78.78;;;28.83;;
57593;SDS011;43423;46.510;6.686;2023-02-11T09:54:04;69.63;;;28.23;;
57593;SDS011;43423;46.510;6.686;2023-02-11T09:56:36;69.65;;;30.50;;
57593;SDS011;43423;46.510;6.686;2023-02-11T09:59:02;68.57;;;29.80;;
57593;SDS011;43423;46.510;6.686;2023-02-11T10:01:43;71.60;;;29.15;;
57593;SDS011;43423;46.510;6.686;2023-02-11T10:04:28;72.20;;;28.55;;
57593;SDS011;43423;46.510;6.686;2023-02-11T10:07:25;72.90;;;29.63;;
57593;SDS011;43423;46.510;6.686;2023-02-11T10:23:14;73.93;;;28.55;;
57593;SDS011;43423;46.510;6.686;2023-02-11T10:25:45;77.25;;;30.92;;
57593;SDS011;43423;46.510;6.686;2023-02-11T10:28:19;72.78;;;29.92;;
57593;SDS011;43423;46.510;6.686;2023-02-11T10:30:56;77.43;;;29.58;;
57593;SDS011;43423;46.510;6.686;2023-02-11T10:33:32;71.75;;;28.88;;
57593;SDS011;43423;46.510;6.686;2023-02-11T10:36:05;67.38;;;29.80;;
57593;SDS011;43423;46.510;6.686;2023-02-11T10:38:31;75.50;;;29.92;;
57593;SDS011;43423;46.510;6.686;2023-02-11T10:40:58;66.82;;;27.73;;
57593;SDS011;43423;46.510;6.686;2023-02-11T10:43:25;76.35;;;30.70;;
57593;SDS011;43423;46.510;6.686;2023-02-11T10:45:53;68.35;;;29.48;;
57593;SDS011;43423;46.510;6.686;2023-02-11T10:51:07;72.00;;;29.42;;
57593;SDS011;43423;46.510;6.686;2023-02-11T10:53:44;76.93;;;29.80;;
57593;SDS011;43423;46.510;6.686;2023-02-11T10:56:33;74.07;;;30.77;;
57593;SDS011;43423;46.510;6.686;2023-02-11T11:04:45;63.70;;;28.60;;
57593;SDS011;43423;46.510;6.686;2023-02-11T11:09:52;71.85;;;28.67;;
57593;SDS011;43423;46.510;6.686;2023-02-11T11:12:25;68.28;;;29.60;;
57593;SDS011;43423;46.510;6.686;2023-02-11T11:17:46;67.35;;;29.45;;
57593;SDS011;43423;46.510;6.686;2023-02-11T11:20:25;63.08;;;26.40;;
57593;SDS011;43423;46.510;6.686;2023-02-11T11:23:06;71.55;;;27.45;;
57593;SDS011;43423;46.510;6.686;2023-02-11T11:25:38;70.88;;;28.88;;
57593;SDS011;43423;46.510;6.686;2023-02-11T11:28:16;69.60;;;28.63;;
57593;SDS011;43423;46.510;6.686;2023-02-11T11:30:46;71.15;;;29.48;;
57593;SDS011;43423;46.510;6.686;2023-02-11T11:33:16;65.68;;;29.02;;
57593;SDS011;43423;46.510;6.686;2023-02-11T11:35:56;70.60;;;28.27;;
57593;SDS011;43423;46.510;6.686;2023-02-11T11:38:25;71.75;;;28.15;;
57593;SDS011;43423;46.510;6.686;2023-02-11T11:43:37;65.47;;;28.05;;
57593;SDS011;43423;46.510;6.686;2023-02-11T11:46:04;67.78;;;28.38;;
57593;SDS011;43423;46.510;6.686;2023-02-11T11:48:37;66.97;;;28.30;;
57593;SDS011;43423;46.510;6.686;2023-02-11T11:51:10;69.07;;;27.08;;
57593;SDS011;43423;46.510;6.686;2023-02-11T11:53:38;66.07;;;27.17;;
57593;SDS011;43423;46.510;6.686;2023-02-11T11:56:13;65.82;;;28.20;;
57593;SDS011;43423;46.510;6.686;2023-02-11T11:58:42;63.85;;;27.35;;
57593;SDS011;43423;46.510;6.686;2023-02-11T12:01:18;64.97;;;27.92;;
57593;SDS011;43423;46.510;6.686;2023-02-11T12:06:33;62.25;;;28.02;;
57593;SDS011;43423;46.510;6.686;2023-02-11T12:09:39;59.30;;;27.48;;
57593;SDS011;43423;46.510;6.686;2023-02-11T12:12:24;64.32;;;27.40;;
57593;SDS011;43423;46.510;6.686;2023-02-11T12:20:50;63.72;;;27.77;;
57593;SDS011;43423;46.510;6.686;2023-02-11T12:26:08;60.00;;;26.70;;
57593;SDS011;43423;46.510;6.686;2023-02-11T12:28:42;60.33;;;27.27;;
57593;SDS011;43423;46.510;6.686;2023-02-11T12:34:38;57.88;;;27.27;;
57593;SDS011;43423;46.510;6.686;2023-02-11T12:39:49;59.00;;;25.33;;
57593;SDS011;43423;46.510;6.686;2023-02-11T12:45:39;55.30;;;25.75;;
57593;SDS011;43423;46.510;6.686;2023-02-11T12:56:21;62.60;;;26.98;;
57593;SDS011;43423;46.510;6.686;2023-02-11T12:58:55;55.92;;;26.65;;
57593;SDS011;43423;46.510;6.686;2023-02-11T13:01:25;61.85;;;27.17;;
57593;SDS011;43423;46.510;6.686;2023-02-11T13:06:39;57.20;;;27.42;;
57593;SDS011;43423;46.510;6.686;2023-02-11T13:09:10;64.72;;;26.83;;
57593;SDS011;43423;46.510;6.686;2023-02-11T13:11:44;52.58;;;24.95;;
57593;SDS011;43423;46.510;6.686;2023-02-11T13:14:35;64.10;;;27.48;;
57593;SDS011;43423;46.510;6.686;2023-02-11T13:17:18;57.72;;;26.90;;
57593;SDS011;43423;46.510;6.686;2023-02-11T13:19:51;58.03;;;25.70;;
57593;SDS011;43423;46.510;6.686;2023-02-11T13:22:23;59.33;;;26.52;;
57593;SDS011;43423;46.510;6.686;2023-02-11T13:25:02;60.58;;;26.80;;
57593;SDS011;43423;46.510;6.686;2023-02-11T13:27:42;57.90;;;25.92;;
57593;SDS011;43423;46.510;6.686;2023-02-11T13:30:25;56.50;;;26.05;;
57593;SDS011;43423;46.510;6.686;2023-02-11T13:37:58;57.15;;;26.90;;
57593;SDS011;43423;46.510;6.686;2023-02-11T13:40:31;57.03;;;27.50;;
57593;SDS011;43423;46.510;6.686;2023-02-11T13:43:00;60.58;;;27.30;;
57593;SDS011;43423;46.510;6.686;2023-02-11T13:45:29;57.17;;;26.70;;
57593;SDS011;43423;46.510;6.686;2023-02-11T13:47:55;51.50;;;25.45;;
57593;SDS011;43423;46.510;6.686;2023-02-11T13:50:23;59.42;;;26.63;;
57593;SDS011;43423;46.510;6.686;2023-02-11T13:53:00;53.78;;;25.48;;
57593;SDS011;43423;46.510;6.686;2023-02-11T13:55:28;67.03;;;28.58;;
57593;SDS011;43423;46.510;6.686;2023-02-11T14:00:41;61.13;;;26.77;;
57593;SDS011;43423;46.510;6.686;2023-02-11T14:06:17;54.85;;;24.48;;
57593;SDS011;43423;46.510;6.686;2023-02-11T14:19:32;50.67;;;22.80;;
57593;SDS011;43423;46.510;6.686;2023-02-11T14:24:59;50.33;;;22.65;;
57593;SDS011;43423;46.510;6.686;2023-02-11T14:27:28;45.95;;;22.00;;
57593;SDS011;43423;46.510;6.686;2023-02-11T14:41:37;50.72;;;24.73;;
57593;SDS011;43423;46.510;6.686;2023-02-11T14:44:10;49.88;;;22.65;;
57593;SDS011;43423;46.510;6.686;2023-02-11T14:46:49;53.47;;;23.50;;
57593;SDS011;43423;46.510;6.686;2023-02-11T14:51:55;48.60;;;21.30;;
57593;SDS011;43423;46.510;6.686;2023-02-11T14:54:25;45.50;;;21.52;;
57593;SDS011;43423;46.510;6.686;2023-02-11T14:59:39;51.90;;;23.25;;
57593;SDS011;43423;46.510;6.686;2023-02-11T15:02:21;53.40;;;23.67;;
57593;SDS011;43423;46.510;6.686;2023-02-11T15:04:48;50.85;;;22.85;;
57593;SDS011;43423;46.510;6.686;2023-02-11T15:07:14;50.55;;;23.55;;
57593;SDS011;43423;46.510;6.686;2023-02-11T15:09:45;52.60;;;23.85;;
57593;SDS011;43423;46.510;6.686;2023-02-11T15:12:18;57.78;;;24.05;;
57593;SDS011;43423;46.510;6.686;2023-02-11T15:14:48;49.92;;;24.15;;
57593;SDS011;43423;46.510;6.686;2023-02-11T15:17:18;52.22;;;23.73;;
57593;SDS011;43423;46.510;6.686;2023-02-11T15:19:47;52.65;;;23.75;;
57593;SDS011;43423;46.510;6.686;2023-02-11T15:22:18;46.20;;;22.33;;
57593;SDS011;43423;46.510;6.686;2023-02-11T15:25:07;61.28;;;24.10;;
57593;SDS011;43423;46.510;6.686;2023-02-11T15:27:38;50.28;;;22.17;;
57593;SDS011;43423;46.510;6.686;2023-02-11T15:32:56;48.45;;;21.35;;
57593;SDS011;43423;46.510;6.686;2023-02-11T15:35:34;45.30;;;20.17;;
57593;SDS011;43423;46.510;6.686;2023-02-11T15:38:03;49.35;;;22.15;;
57593;SDS011;43423;46.510;6.686;2023-02-11T15:40:30;49.63;;;22.15;;
57593;SDS011;43423;46.510;6.686;2023-02-11T15:42:58;47.75;;;21.65;;
57593;SDS011;43423;46.510;6.686;2023-02-11T15:45:29;55.17;;;22.52;;
57593;SDS011;43423;46.510;6.686;2023-02-11T15:50:48;50.70;;;22.17;;
57593;SDS011;43423;46.510;6.686;2023-02-11T15:58:42;52.95;;;24.00;;
57593;SDS011;43423;46.510;6.686;2023-02-11T16:01:11;51.35;;;22.95;;
57593;SDS011;43423;46.510;6.686;2023-02-11T16:03:38;55.70;;;23.63;;
57593;SDS011;43423;46.510;6.686;2023-02-11T16:08:39;56.97;;;24.17;;
57593;SDS011;43423;46.510;6.686;2023-02-11T16:11:53;51.10;;;22.90;;
57593;SDS011;43423;46.510;6.686;2023-02-11T16:14:00;55.25;;;23.70;;
57593;SDS011;43423;46.510;6.686;2023-02-11T16:16:43;49.38;;;21.20;;
57593;SDS011;43423;46.510;6.686;2023-02-11T16:19:14;49.13;;;21.90;;
57593;SDS011;43423;46.510;6.686;2023-02-11T16:21:43;52.83;;;21.85;;
57593;SDS011;43423;46.510;6.686;2023-02-11T16:26:55;45.05;;;20.58;;
57593;SDS011;43423;46.510;6.686;2023-02-11T16:29:32;44.97;;;20.25;;
57593;SDS011;43423;46.510;6.686;2023-02-11T16:34:35;43.95;;;19.35;;
57593;SDS011;43423;46.510;6.686;2023-02-11T16:37:04;40.78;;;18.48;;
57593;SDS011;43423;46.510;6.686;2023-02-11T16:39:30;40.60;;;18.27;;
57593;SDS011;43423;46.510;6.686;2023-02-11T16:41:56;44.95;;;20.25;;
57593;SDS011;43423;46.510;6.686;2023-02-11T16:44:22;46.53;;;20.52;;
57593;SDS011;43423;46.510;6.686;2023-02-11T16:46:48;49.83;;;22.00;;
57593;SDS011;43423;46.510;6.686;2023-02-11T16:49:19;49.60;;;20.50;;
57593;SDS011;43423;46.510;6.686;2023-02-11T16:51:45;47.00;;;19.95;;
57593;SDS011;43423;46.510;6.686;2023-02-11T16:54:13;47.72;;;21.77;;
57593;SDS011;43423;46.510;6.686;2023-02-11T16:56:40;56.30;;;23.25;;
57593;SDS011;43423;46.510;6.686;2023-02-11T16:59:06;62.80;;;24.83;;